Time;durP1;ratioP1;P1;durP2;ratioP2;P2;SDS_P1;SDS_P2;PMS_P1;PMS_P2;Temp;Humidity;BMP_temperature;BMP_pressure;BME280_temperature;BME280_humidity;BME280_pressure;Samples;Min_cycle;Max_cycle;Signal;HPM_P1;HPM_P2
2021/10/19 00:02:06;;;;;;;0.20;0.20;;;;;;;7.77;100.00;101405.47;5137285;27;20049;-84
2021/10/19 00:04:39;;;;;;;0.20;0.20;;;;;;;7.74;100.00;101394.31;5137492;27;20813;-84
2021/10/19 00:07:12;;;;;;;0.20;0.20;;;;;;;7.80;100.00;101410.44;5121105;27;20055;-82
2021/10/19 00:09:46;;;;;;;0.20;0.20;;;;;;;7.81;100.00;101405.84;5135508;27;20039;-84
2021/10/19 00:12:20;;;;;;;0.20;0.20;;;;;;;7.83;100.00;101420.78;5139207;27;20043;-84
2021/10/19 00:14:48;;;;;;;0.20;0.20;;;;;;;7.79;100.00;101411.50;5124476;27;20055;-84
2021/10/19 00:17:21;;;;;;;0.20;0.20;;;;;;;7.82;100.00;101418.31;5113781;27;20054;-84
2021/10/19 00:19:54;;;;;;;0.10;0.10;;;;;;;7.77;100.00;101419.03;5129565;27;20058;-83
2021/10/19 00:22:27;;;;;;;0.30;0.30;;;;;;;7.80;100.00;101431.28;5121358;27;20038;-84
2021/10/19 00:25:04;;;;;;;0.28;0.28;;;;;;;7.76;100.00;101435.53;5122113;27;20059;-84
2021/10/19 00:27:33;;;;;;;0.30;0.30;;;;;;;7.72;100.00;101437.09;5121759;27;20043;-83
2021/10/19 00:30:09;;;;;;;0.20;0.20;;;;;;;7.63;100.00;101425.81;5141981;27;20052;-84
2021/10/19 00:32:42;;;;;;;0.20;0.20;;;;;;;7.63;100.00;101418.50;5136731;27;20057;-83
2021/10/19 00:35:16;;;;;;;0.20;0.20;;;;;;;7.65;100.00;101432.66;5137239;27;20050;-84
2021/10/19 00:37:49;;;;;;;0.20;0.20;;;;;;;7.62;100.00;101435.84;5123683;27;20059;-84
2021/10/19 00:40:24;;;;;;;0.10;0.10;;;;;;;7.55;100.00;101423.50;5134482;27;20058;-84
2021/10/19 00:42:52;;;;;;;0.28;0.28;;;;;;;7.60;100.00;101427.13;5121181;27;20050;-84
2021/10/19 00:45:25;;;;;;;0.20;0.20;;;;;;;7.55;100.00;101423.50;5136218;27;20045;-84
2021/10/19 00:47:58;;;;;;;0.20;0.20;;;;;;;7.58;100.00;101421.13;5121829;27;20047;-84
2021/10/19 00:50:32;;;;;;;0.30;0.30;;;;;;;7.57;100.00;101430.31;5135160;27;20043;-84
2021/10/19 00:53:06;;;;;;;0.20;0.20;;;;;;;7.59;100.00;101427.38;5122585;27;20047;-83
2021/10/19 00:55:41;;;;;;;0.20;0.20;;;;;;;7.59;100.00;101422.75;5136300;27;20097;-84
2021/10/19 00:58:14;;;;;;;0.20;0.20;;;;;;;7.55;100.00;101423.50;5119396;27;20054;-84
2021/10/19 01:00:47;;;;;;;0.20;0.20;;;;;;;7.50;100.00;101424.22;5117602;27;20059;-84
2021/10/19 01:03:20;;;;;;;0.20;0.20;;;;;;;7.57;100.00;101416.78;5136554;27;20050;-84
2021/10/19 01:05:54;;;;;;;0.20;0.20;;;;;;;7.55;100.00;101405.34;5139901;27;20050;-83
2021/10/19 01:08:27;;;;;;;0.20;0.20;;;;;;;7.55;100.00;101405.34;5135727;27;20050;-84
2021/10/19 01:11:02;;;;;;;0.30;0.30;;;;;;;7.56;100.00;101406.19;5138490;27;20054;-84
2021/10/19 01:13:36;;;;;;;0.20;0.20;;;;;;;7.53;100.00;101407.50;5122438;27;20055;-84
2021/10/19 01:16:11;;;;;;;0.20;0.20;;;;;;;7.55;100.00;101399.94;5136797;27;20050;-84
2021/10/19 01:18:45;;;;;;;0.20;0.20;;;;;;;7.57;100.00;101391.59;5121948;27;20060;-84
2021/10/19 01:21:20;;;;;;;0.25;0.25;;;;;;;7.61;100.00;101385.44;5134896;27;20053;-84
2021/10/19 01:23:53;;;;;;;0.20;0.20;;;;;;;7.51;100.00;101374.38;5122322;27;20481;-84
2021/10/19 01:26:21;;;;;;;0.20;0.20;;;;;;;7.60;100.00;101362.09;5136666;27;20450;-84
2021/10/19 01:28:54;;;;;;;0.20;0.20;;;;;;;7.62;100.00;101364.56;5119440;27;20103;-83
2021/10/19 01:31:27;;;;;;;0.20;0.20;;;;;;;7.60;100.00;101364.81;5120962;27;20047;-84
2021/10/19 01:34:00;;;;;;;0.20;0.20;;;;;;;7.60;100.00;101364.00;5120184;27;20050;-82
2021/10/19 01:36:35;;;;;;;0.20;0.20;;;;;;;7.65;100.00;101364.91;5118045;27;20689;-84
2021/10/19 01:39:08;;;;;;;0.30;0.30;;;;;;;7.63;100.00;101366.22;5116988;27;20514;-83
2021/10/19 01:41:42;;;;;;;0.20;0.20;;;;;;;7.64;100.00;101359.75;5135158;27;20485;-84
2021/10/19 01:44:11;;;;;;;0.20;0.20;;;;;;;7.67;100.00;101361.97;5137521;27;20042;-83
2021/10/19 01:46:39;;;;;;;0.30;0.30;;;;;;;7.63;100.00;101355.38;5134915;27;20050;-83
2021/10/19 01:49:07;;;;;;;0.20;0.20;;;;;;;7.62;100.00;101360.00;5135728;27;20399;-84
2021/10/19 01:51:41;;;;;;;0.20;0.20;;;;;;;7.60;100.00;101375.66;5119038;27;20066;-83
2021/10/19 01:54:10;;;;;;;0.20;0.20;;;;;;;7.68;100.00;101393.41;5119509;27;20073;-84
2021/10/19 01:56:43;;;;;;;0.20;0.20;;;;;;;7.71;100.00;101392.09;5120827;27;20055;-84
2021/10/19 01:59:16;;;;;;;0.20;0.20;;;;;;;7.71;100.00;101397.53;5135181;27;20047;-84
2021/10/19 02:01:50;;;;;;;0.20;0.20;;;;;;;7.65;100.00;101383.03;5122227;27;20051;-84
2021/10/19 02:04:18;;;;;;;0.20;0.20;;;;;;;7.70;100.00;101377.72;5134933;27;20047;-84
2021/10/19 02:06:53;;;;;;;0.30;0.30;;;;;;;7.70;100.00;101377.72;5134674;27;20051;-84
2021/10/19 02:09:26;;;;;;;0.20;0.20;;;;;;;7.71;100.00;101373.97;5119533;27;20418;-82
2021/10/19 02:11:59;;;;;;;0.20;0.20;;;;;;;7.70;100.00;101369.59;5114865;27;20051;-83
2021/10/19 02:14:28;;;;;;;0.25;0.25;;;;;;;7.73;100.00;101376.41;5140936;27;20058;-84
2021/10/19 02:17:02;;;;;;;0.20;0.20;;;;;;;7.68;100.00;101371.75;5139061;27;20046;-84
2021/10/19 02:19:35;;;;;;;0.20;0.20;;;;;;;7.73;100.00;101371.00;5126407;27;20050;-83
2021/10/19 02:22:10;;;;;;;0.20;0.20;;;;;;;7.75;100.00;101374.31;5117918;27;20051;-84
2021/10/19 02:24:43;;;;;;;0.22;0.22;;;;;;;7.76;100.00;101368.63;5138421;27;20051;-83
2021/10/19 02:27:11;;;;;;;0.30;0.30;;;;;;;7.77;100.00;101362.13;5124343;27;20387;-84
2021/10/19 02:29:44;;;;;;;0.30;0.30;;;;;;;7.73;100.00;101350.13;5138642;27;20854;-83
2021/10/19 02:32:18;;;;;;;0.20;0.20;;;;;;;7.77;100.00;101350.47;5137650;27;20046;-84
2021/10/19 02:34:46;;;;;;;0.20;0.20;;;;;;;7.80;100.00;101345.41;5117976;27;20049;-84
2021/10/19 02:37:16;;;;;;;0.20;0.20;;;;;;;7.77;100.00;101334.22;5130331;27;20409;-84
2021/10/19 02:39:49;;;;;;;0.20;0.20;;;;;;;7.75;100.00;101314.69;5137975;27;20043;-83
2021/10/19 02:42:22;;;;;;;0.25;0.25;;;;;;;7.77;100.00;101313.34;5127517;27;20413;-84
2021/10/19 02:44:56;;;;;;;0.20;0.20;;;;;;;7.76;100.00;101298.19;5141589;27;20042;-84
2021/10/19 02:47:24;;;;;;;0.20;0.20;;;;;;;7.73;100.00;101301.38;5123139;27;20063;-83
2021/10/19 02:49:52;;;;;;;0.20;0.20;;;;;;;7.73;100.00;101292.44;5136792;27;20047;-83
2021/10/19 02:52:22;;;;;;;0.25;0.25;;;;;;;7.70;100.00;101284.78;5139947;27;20043;-84
2021/10/19 02:54:55;;;;;;;0.20;0.20;;;;;;;7.75;100.00;101274.06;5140558;27;20068;-84
2021/10/19 02:57:29;;;;;;;0.30;0.30;;;;;;;7.73;100.00;101268.84;5147020;27;20042;-83
2021/10/19 03:00:02;;;;;;;0.20;0.20;;;;;;;7.69;100.00;101266.88;5137270;27;20051;-83
2021/10/19 03:02:30;;;;;;;0.30;0.30;;;;;;;7.69;100.00;101267.69;5123091;27;20051;-84
2021/10/19 03:05:05;;;;;;;0.20;0.20;;;;;;;7.74;100.00;101266.97;5136454;27;20044;-83
2021/10/19 03:07:39;;;;;;;0.20;0.20;;;;;;;7.75;100.00;101258.59;5119475;27;20050;-84
2021/10/19 03:10:14;;;;;;;0.30;0.30;;;;;;;7.72;100.00;101256.41;5138340;27;20050;-83
2021/10/19 03:12:42;;;;;;;0.20;0.20;;;;;;;7.77;100.00;101252.94;5127445;27;20498;-84
2021/10/19 03:15:19;;;;;;;0.30;0.30;;;;;;;7.75;100.00;101245.06;5136142;27;20413;-83
2021/10/19 03:17:48;;;;;;;0.30;0.30;;;;;;;7.79;100.00;101265.19;5123762;27;20482;-83
2021/10/19 03:20:21;;;;;;;0.20;0.20;;;;;;;7.75;100.00;101255.09;5150200;27;20482;-83
2021/10/19 03:22:55;;;;;;;0.20;0.20;;;;;;;7.78;100.00;101251.88;5121735;27;20055;-83
2021/10/19 03:25:29;;;;;;;0.25;0.25;;;;;;;7.75;100.00;101260.50;5137871;27;20047;-84
2021/10/19 03:28:02;;;;;;;0.20;0.20;;;;;;;7.80;100.00;101258.69;5136275;27;20038;-83
2021/10/19 03:30:35;;;;;;;0.20;0.20;;;;;;;7.78;100.00;101247.25;5138692;27;20471;-84
2021/10/19 03:33:04;;;;;;;0.20;0.20;;;;;;;7.79;100.00;101257.03;5120733;27;20062;-83
2021/10/19 03:35:37;;;;;;;0.20;0.20;;;;;;;7.81;100.00;101256.78;5127170;27;20051;-84
2021/10/19 03:38:12;;;;;;;0.20;0.20;;;;;;;7.83;100.00;101251.97;5136372;27;20039;-83
2021/10/19 03:40:45;;;;;;;0.20;0.20;;;;;;;7.81;100.00;101257.59;5121865;27;20055;-84
2021/10/19 03:43:18;;;;;;;0.30;0.30;;;;;;;7.83;100.00;101262.81;5122675;27;20047;-83
2021/10/19 03:45:51;;;;;;;0.20;0.20;;;;;;;7.87;100.00;101272.09;5134214;27;20047;-84
2021/10/19 03:48:24;;;;;;;0.30;0.30;;;;;;;7.92;100.00;101263.19;5116757;27;20066;-83
2021/10/19 03:50:57;;;;;;;0.20;0.20;;;;;;;7.91;100.00;101256.13;5136028;27;20049;-84
2021/10/19 03:53:27;;;;;;;0.20;0.20;;;;;;;7.90;100.00;101260.75;5126057;27;20414;-84
2021/10/19 03:56:00;;;;;;;0.20;0.20;;;;;;;7.95;100.00;101268.94;5137299;27;20039;-83
2021/10/19 03:58:33;;;;;;;0.30;0.30;;;;;;;7.92;100.00;101258.59;5138196;27;20031;-84
2021/10/19 04:01:07;;;;;;;0.30;0.30;;;;;;;7.92;100.00;101261.31;5119146;27;20043;-82
2021/10/19 04:03:40;;;;;;;0.20;0.20;;;;;;;7.97;100.00;101271.41;5138904;27;20046;-84
2021/10/19 04:06:08;;;;;;;0.20;0.20;;;;;;;7.94;100.00;101275.44;5119002;27;20061;-83
2021/10/19 04:08:43;;;;;;;0.20;0.20;;;;;;;7.99;100.00;101270.06;5139184;27;20039;-83
2021/10/19 04:11:16;;;;;;;0.30;0.30;;;;;;;7.99;100.00;101272.78;5125062;27;20057;-83
2021/10/19 04:13:49;;;;;;;0.20;0.20;;;;;;;7.99;100.00;101280.91;5122078;27;20075;-83
2021/10/19 04:16:22;;;;;;;0.28;0.28;;;;;;;8.05;100.00;101283.72;5135653;27;20410;-83
2021/10/19 04:18:51;;;;;;;0.20;0.20;;;;;;;8.02;100.00;101298.56;5136951;27;20043;-83
2021/10/19 04:21:24;;;;;;;0.25;0.25;;;;;;;8.07;100.00;101292.44;5116931;27;20076;-83
2021/10/19 04:23:58;;;;;;;0.22;0.22;;;;;;;8.05;100.00;101292.69;5118434;27;20039;-83
2021/10/19 04:26:31;;;;;;;0.20;0.20;;;;;;;8.09;100.00;101287.56;5133550;27;20045;-83
2021/10/19 04:29:05;;;;;;;0.20;0.20;;;;;;;8.10;100.00;101286.50;5125891;27;20410;-83
2021/10/19 04:31:38;;;;;;;0.28;0.28;;;;;;;8.19;100.00;101274.19;5137213;27;20490;-83
2021/10/19 04:34:12;;;;;;;0.20;0.20;;;;;;;8.17;100.00;101279.00;5140388;27;20058;-82
2021/10/19 04:36:45;;;;;;;0.20;0.20;;;;;;;8.15;100.00;101270.31;5140758;27;20041;-84
2021/10/19 04:39:20;;;;;;;0.20;0.20;;;;;;;8.18;100.00;101261.69;5140249;27;20056;-83
2021/10/19 04:41:53;;;;;;;0.20;0.20;;;;;;;8.12;100.00;101258.09;5141819;27;20050;-82
2021/10/19 04:44:21;;;;;;;0.20;0.20;;;;;;;8.07;100.00;101262.63;5140109;27;20054;-83
2021/10/19 04:46:49;;;;;;;0.20;0.20;;;;;;;8.11;100.00;101261.84;5140166;27;20046;-83
2021/10/19 04:49:18;;;;;;;0.20;0.20;;;;;;;8.13;100.00;101248.06;5141684;27;20034;-83
2021/10/19 04:51:51;;;;;;;0.20;0.20;;;;;;;8.13;100.00;101243.47;5126610;27;20054;-83
2021/10/19 04:54:25;;;;;;;0.20;0.20;;;;;;;8.10;100.00;101252.06;5123043;27;20078;-83
2021/10/19 04:56:58;;;;;;;0.20;0.20;;;;;;;8.10;100.00;101237.72;5141245;27;20043;-83
2021/10/19 04:59:32;;;;;;;0.20;0.20;;;;;;;8.10;100.00;101252.06;5139718;27;20039;-83
2021/10/19 05:02:05;;;;;;;0.20;0.20;;;;;;;8.10;100.00;101245.84;5148497;27;20039;-83
2021/10/19 05:04:38;;;;;;;0.20;0.20;;;;;;;8.11;100.00;101258.34;5125950;27;20059;-83
2021/10/19 05:07:11;;;;;;;0.20;0.20;;;;;;;8.07;100.00;101258.00;5140395;27;20047;-83
2021/10/19 05:09:45;;;;;;;0.20;0.20;;;;;;;8.04;100.00;101258.50;5139388;27;20035;-83
2021/10/19 05:12:13;;;;;;;0.30;0.30;;;;;;;8.04;100.00;101250.38;5140191;27;20050;-82
2021/10/19 05:14:47;;;;;;;0.30;0.30;;;;;;;8.05;100.00;101245.75;5141836;27;20039;-83
2021/10/19 05:17:20;;;;;;;0.30;0.30;;;;;;;7.99;100.00;101244.88;5123909;27;20055;-83
2021/10/19 05:19:54;;;;;;;0.20;0.20;;;;;;;8.00;100.00;101238.38;5131406;27;20118;-83
2021/10/19 05:22:28;;;;;;;0.28;0.28;;;;;;;7.96;100.00;101229.13;5128711;27;20410;-83
2021/10/19 05:25:02;;;;;;;0.20;0.20;;;;;;;7.97;100.00;101228.84;5137760;27;20038;-83
2021/10/19 05:27:38;;;;;;;0.20;0.20;;;;;;;7.97;100.00;101230.75;5138798;27;20034;-82
2021/10/19 05:30:12;;;;;;;0.22;0.22;;;;;;;7.98;100.00;101227.81;5140594;27;20589;-83
2021/10/19 05:32:45;;;;;;;0.20;0.20;;;;;;;8.00;100.00;101232.97;5129137;27;20491;-82
2021/10/19 05:35:18;;;;;;;0.20;0.20;;;;;;;8.04;100.00;101227.84;5139109;27;20039;-83
2021/10/19 05:37:52;;;;;;;0.20;0.20;;;;;;;8.05;100.00;101218.66;5120317;27;20047;-82
2021/10/19 05:40:27;;;;;;;0.30;0.30;;;;;;;8.05;100.00;101218.66;5118920;27;20046;-82
2021/10/19 05:43:00;;;;;;;0.30;0.30;;;;;;;8.07;100.00;101211.09;5139711;27;20275;-83
2021/10/19 05:45:33;;;;;;;0.20;0.20;;;;;;;8.00;100.00;101206.66;5137659;27;20047;-83
2021/10/19 05:48:07;;;;;;;0.30;0.30;;;;;;;8.05;100.00;101205.94;5118606;27;20046;-82
2021/10/19 05:50:37;;;;;;;0.30;0.30;;;;;;;8.09;100.00;101198.09;5119149;27;20043;-81
2021/10/19 05:53:10;;;;;;;0.20;0.20;;;;;;;8.09;100.00;101201.66;5118720;27;20077;-83
2021/10/19 05:55:44;;;;;;;0.30;0.30;;;;;;;8.10;100.00;101192.44;5140988;27;20038;-83
2021/10/19 05:58:17;;;;;;;0.20;0.20;;;;;;;8.08;100.00;101193.75;5137893;27;20060;-84
2021/10/19 06:00:50;;;;;;;0.20;0.20;;;;;;;8.11;100.00;101190.56;5117350;27;20055;-83
2021/10/19 06:03:24;;;;;;;0.20;0.20;;;;;;;8.16;100.00;101188.75;5145409;27;20038;-83
2021/10/19 06:05:52;;;;;;;0.20;0.20;;;;;;;8.16;100.00;101186.03;5138020;27;20405;-82
2021/10/19 06:08:25;;;;;;;0.30;0.30;;;;;;;8.19;100.00;101179.28;5136916;27;20070;-83
2021/10/19 06:10:59;;;;;;;0.30;0.30;;;;;;;8.24;100.00;101182.03;5122047;27;20051;-83
2021/10/19 06:13:33;;;;;;;0.20;0.20;;;;;;;8.24;100.00;101179.31;5138519;27;20061;-82
2021/10/19 06:16:06;;;;;;;0.28;0.28;;;;;;;8.25;100.00;101180.16;5118674;27;20054;-83
2021/10/19 06:18:40;;;;;;;0.22;0.22;;;;;;;8.26;100.00;101189.91;5122509;27;20057;-83
2021/10/19 06:21:08;;;;;;;0.20;0.20;;;;;;;8.24;100.00;101182.03;5138808;27;20382;-84
2021/10/19 06:23:41;;;;;;;0.30;0.30;;;;;;;8.27;100.00;101188.84;5142559;27;20046;-82
2021/10/19 06:26:15;;;;;;;0.25;0.25;;;;;;;8.35;100.00;101193.84;5143321;27;20039;-83
2021/10/19 06:28:51;;;;;;;0.20;0.20;;;;;;;8.39;100.00;101186.03;5126897;27;20043;-85
2021/10/19 06:31:24;;;;;;;0.20;0.20;;;;;;;8.39;100.00;101184.13;5139156;27;20051;-84
2021/10/19 06:33:57;;;;;;;0.22;0.22;;;;;;;8.40;100.00;101183.06;5127690;27;20054;-85
2021/10/19 06:36:30;;;;;;;0.20;0.20;;;;;;;8.42;100.00;101191.75;5126204;27;20067;-84
2021/10/19 06:39:04;;;;;;;0.30;0.30;;;;;;;8.50;100.00;101190.53;5140143;27;20607;-84
2021/10/19 06:41:39;;;;;;;0.20;0.20;;;;;;;8.49;100.00;101199.72;5140819;27;20043;-86
2021/10/19 06:44:12;;;;;;;0.20;0.20;;;;;;;8.55;100.00;101203.31;5152821;27;20504;-82
2021/10/19 06:46:45;;;;;;;0.20;0.20;;;;;;;8.57;100.00;101202.00;5140788;27;20039;-85
2021/10/19 06:49:13;;;;;;;0.20;0.20;;;;;;;8.59;100.00;101188.19;5143763;27;20046;-84
2021/10/19 06:51:42;;;;;;;0.20;0.20;;;;;;;8.61;100.00;101188.75;5121586;27;20050;-84
2021/10/19 06:54:17;;;;;;;0.20;0.20;;;;;;;8.63;100.00;101198.28;5095845;27;20052;-85
2021/10/19 06:56:51;;;;;;;0.20;0.20;;;;;;;8.67;100.00;101190.44;5058806;28;20047;-85
2021/10/19 06:59:25;;;;;;;0.30;0.30;;;;;;;8.71;100.00;101185.34;5062792;28;20044;-84
2021/10/19 07:01:58;;;;;;;0.30;0.30;;;;;;;8.72;100.00;101181.56;5063583;28;20059;-84
2021/10/19 07:04:31;;;;;;;0.30;0.30;;;;;;;8.80;100.00;101192.78;5060829;28;20067;-84
2021/10/19 07:07:04;;;;;;;0.20;0.20;;;;;;;8.85;100.00;101189.28;5056679;28;20051;-84
2021/10/19 07:09:33;;;;;;;0.20;0.20;;;;;;;8.87;100.00;101191.75;5072261;28;20579;-84
2021/10/19 07:12:08;;;;;;;0.30;0.30;;;;;;;8.90;100.00;101180.38;5063065;28;20409;-84
2021/10/19 07:14:43;;;;;;;0.28;0.28;;;;;;;8.95;100.00;101188.56;5063680;28;20059;-83
2021/10/19 07:17:16;;;;;;;0.20;0.20;;;;;;;9.04;100.00;101202.50;5063823;28;20060;-83
2021/10/19 07:19:49;;;;;;;0.22;0.22;;;;;;;9.03;100.00;101190.81;5069847;28;20048;-82
2021/10/19 07:22:18;;;;;;;0.20;0.20;;;;;;;9.03;100.00;101179.94;5067097;28;20044;-84
2021/10/19 07:24:51;;;;;;;0.20;0.20;;;;;;;9.11;100.00;101173.25;5084266;28;20538;-83
2021/10/19 07:27:30;;;;;;;0.30;0.30;;;;;;;9.24;100.00;101167.41;5067806;28;20078;-82
2021/10/19 07:30:05;;;;;;;0.20;0.20;;;;;;;9.32;100.00;101175.06;5074341;28;20055;-84
2021/10/19 07:32:33;;;;;;;0.25;0.25;;;;;;;9.42;100.00;101168.06;5065208;28;20044;-83
2021/10/19 07:35:07;;;;;;;0.20;0.20;;;;;;;9.52;100.00;101174.41;5083134;28;20078;-83
2021/10/19 07:37:36;;;;;;;0.20;0.20;;;;;;;9.63;100.00;101172.56;5080454;28;20056;-84
2021/10/19 07:40:11;;;;;;;0.30;0.30;;;;;;;9.70;100.00;101173.16;5072285;28;20400;-85
2021/10/19 07:42:48;;;;;;;0.20;0.20;;;;;;;9.73;100.00;101176.44;5068979;28;20676;-85
2021/10/19 07:45:23;;;;;;;0.20;0.20;;;;;;;9.72;100.00;101181.03;5065908;28;20052;-84
2021/10/19 07:47:59;;;;;;;0.20;0.20;;;;;;;9.72;100.00;101180.25;5063043;28;20049;-84
2021/10/19 07:50:32;;;;;;;0.20;0.20;;;;;;;9.70;100.00;101177.78;5062061;28;20392;-84
2021/10/19 07:53:05;;;;;;;0.20;0.20;;;;;;;9.85;100.00;101177.06;5066538;28;20083;-83
2021/10/19 07:55:38;;;;;;;0.30;0.30;;;;;;;9.85;100.00;101166.19;5040272;28;20063;-82
2021/10/19 07:58:13;;;;;;;0.20;0.20;;;;;;;9.84;100.00;101159.13;5060392;28;20780;-82
2021/10/19 08:00:41;;;;;;;0.20;0.20;;;;;;;9.87;100.00;101158.59;5052035;28;20055;-82
2021/10/19 08:03:14;;;;;;;0.30;0.30;;;;;;;9.92;100.00;101168.69;5058802;28;20048;-82
2021/10/19 08:05:48;;;;;;;0.20;0.20;;;;;;;9.94;100.00;101161.06;5063132;28;20407;-84
2021/10/19 08:08:21;;;;;;;0.20;0.20;;;;;;;10.00;100.00;101163.56;5064053;28;20043;-83
2021/10/19 08:10:54;;;;;;;0.20;0.20;;;;;;;9.99;100.00;101163.81;5061044;28;20048;-84
2021/10/19 08:13:29;;;;;;;0.20;0.20;;;;;;;10.06;100.00;101166.31;5063524;28;20589;-83
2021/10/19 08:15:57;;;;;;;0.20;0.20;;;;;;;10.12;100.00;101167.97;5065323;28;20051;-83
2021/10/19 08:18:30;;;;;;;0.20;0.20;;;;;;;10.10;100.00;101168.22;5064558;28;20551;-83
2021/10/19 08:21:09;;;;;;;0.10;0.10;;;;;;;10.25;100.00;101164.75;5062995;28;20055;-84
2021/10/19 08:23:43;;;;;;;0.20;0.20;;;;;;;10.30;100.00;101153.06;5063298;28;20566;-83
2021/10/19 08:26:16;;;;;;;0.20;0.20;;;;;;;10.37;100.00;101150.94;5059500;28;20075;-83
2021/10/19 08:28:53;;;;;;;0.20;0.20;;;;;;;10.41;100.00;101143.88;5063691;28;20468;-83
2021/10/19 08:31:27;;;;;;;0.30;0.30;;;;;;;10.46;100.00;101143.91;5065701;28;20492;-81
2021/10/19 08:34:00;;;;;;;0.20;0.20;;;;;;;10.52;100.00;101142.03;5066303;28;20055;-84
2021/10/19 08:36:33;;;;;;;0.30;0.30;;;;;;;10.52;100.00;101137.41;5059336;28;20059;-82
2021/10/19 08:39:06;;;;;;;0.20;0.20;;;;;;;10.64;100.00;101149.94;5061705;28;20044;-82
2021/10/19 08:41:40;;;;;;;0.20;0.20;;;;;;;10.70;100.00;101141.53;5061858;28;20056;-83
2021/10/19 08:44:14;;;;;;;0.20;0.20;;;;;;;10.75;100.00;101142.63;5066390;28;20044;-83
2021/10/19 08:46:42;;;;;;;0.20;0.20;;;;;;;10.78;100.00;101144.81;5060687;28;20508;-83
2021/10/19 08:49:16;;;;;;;0.20;0.20;;;;;;;10.79;100.00;101147.25;5074167;28;20055;-83
2021/10/19 08:51:44;;;;;;;0.20;0.20;;;;;;;10.81;100.00;101136.94;5080645;28;20462;-85
2021/10/19 08:54:17;;;;;;;0.22;0.22;;;;;;;10.91;100.00;101147.00;5046194;28;20068;-82
2021/10/19 08:56:50;;;;;;;0.20;0.20;;;;;;;10.95;100.00;101148.13;5060187;28;20059;-83
2021/10/19 08:59:26;;;;;;;0.22;0.22;;;;;;;11.02;100.00;101140.47;5067363;28;20055;-80
2021/10/19 09:01:59;;;;;;;0.20;0.20;;;;;;;11.12;100.00;101144.31;5069371;28;20098;-84
2021/10/19 09:04:32;;;;;;;0.20;0.20;;;;;;;11.18;100.00;101140.47;5084881;28;20063;-84
2021/10/19 09:07:01;;;;;;;0.20;0.20;;;;;;;11.25;100.00;101138.28;5063261;28;20273;-82
2021/10/19 09:09:29;;;;;;;0.20;0.20;;;;;;;11.26;100.00;101136.41;5061791;28;20056;-83
2021/10/19 09:12:04;;;;;;;0.30;0.30;;;;;;;11.32;100.00;101124.41;5076595;28;20043;-83
2021/10/19 09:14:39;;;;;;;0.28;0.28;;;;;;;11.31;100.00;101129.03;5065313;28;20099;-83
2021/10/19 09:17:08;;;;;;;0.30;0.30;;;;;;;11.36;100.00;101129.03;5061580;28;20060;-82
2021/10/19 09:19:44;;;;;;;0.30;0.30;;;;;;;11.38;100.00;101136.94;5063158;28;20712;-83
2021/10/19 09:22:18;;;;;;;0.20;0.20;;;;;;;11.32;100.00;101124.41;5066000;28;20048;-84
2021/10/19 09:24:51;;;;;;;0.20;0.20;;;;;;;11.36;100.00;101133.66;5066635;28;21628;-83
2021/10/19 09:27:24;;;;;;;0.20;0.20;;;;;;;11.43;100.00;101149.75;5066588;28;20055;-82
2021/10/19 09:30:08;;;;;;;0.20;0.20;;;;;;;11.53;100.00;101144.25;5068075;28;20056;-82
2021/10/19 09:32:51;;;;;;;0.20;0.20;;;;;;;11.52;100.00;101153.56;5069951;28;20066;-84
2021/10/19 09:35:23;;;;;;;0.22;0.22;;;;;;;11.61;100.00;101149.16;5064341;28;20055;-83
2021/10/19 09:37:59;;;;;;;0.20;0.20;;;;;;;11.63;100.00;101151.59;5067772;28;20056;-83
2021/10/19 09:40:31;;;;;;;0.20;0.20;;;;;;;11.62;100.00;101139.09;5064835;28;20064;-84
2021/10/19 09:43:07;;;;;;;0.20;0.20;;;;;;;11.70;100.00;101146.72;5064089;28;20059;-84
2021/10/19 09:45:43;;;;;;;0.20;0.20;;;;;;;11.62;100.00;101130.91;5061032;28;20091;-84
2021/10/19 09:48:18;;;;;;;0.27;0.27;;;;;;;11.63;100.00;101133.34;5062193;28;20515;-83
2021/10/19 09:50:51;;;;;;;0.20;0.20;;;;;;;11.71;100.00;101123.78;5064883;28;20510;-86
2021/10/19 09:53:26;;;;;;;0.30;0.30;;;;;;;11.69;100.00;101124.06;5085308;28;20048;-85
2021/10/19 09:56:00;;;;;;;0.20;0.20;;;;;;;11.77;100.00;101117.22;5045668;28;20971;-84
2021/10/19 09:58:30;;;;;;;0.20;0.20;;;;;;;11.78;100.00;101113.44;5060604;28;20068;-84
2021/10/19 10:00:59;;;;;;;0.30;0.30;;;;;;;11.85;100.00;101105.75;5082503;28;20052;-82
2021/10/19 10:03:33;;;;;;;0.20;0.20;;;;;;;11.96;100.00;101103.00;5069292;28;20048;-84
2021/10/19 10:06:09;;;;;;;0.20;0.20;;;;;;;12.05;100.00;101099.41;5063392;28;20055;-83
2021/10/19 10:08:43;;;;;;;0.22;0.22;;;;;;;12.18;100.00;101102.66;5064454;28;20887;-84
2021/10/19 10:11:17;;;;;;;0.20;0.20;;;;;;;12.23;100.00;101095.25;5059078;28;20106;-84
2021/10/19 10:13:58;;;;;;;0.20;0.20;;;;;;;12.33;100.00;101099.88;5061297;28;20559;-85
2021/10/19 10:16:43;;;;;;;0.20;0.20;;;;;;;12.37;100.00;101081.00;5063940;28;20048;-85
2021/10/19 10:19:13;;;;;;;0.30;0.30;;;;;;;12.44;100.00;101069.75;5066016;28;20060;-83
2021/10/19 10:21:49;;;;;;;0.20;0.20;;;;;;;12.58;100.00;101076.22;5064885;28;20041;-84
2021/10/19 10:24:30;;;;;;;0.30;0.30;;;;;;;12.62;100.00;101065.53;5063559;28;20515;-84
2021/10/19 10:27:11;;;;;;;0.20;0.20;;;;;;;12.67;100.00;101063.59;5059045;28;20575;-83
2021/10/19 10:29:47;;;;;;;0.20;0.20;;;;;;;12.74;100.00;101064.06;5061464;28;20069;-83
2021/10/19 10:32:23;;;;;;;0.20;0.20;;;;;;;12.87;100.00;101059.06;5062534;28;20056;-84
2021/10/19 10:35:02;;;;;;;0.20;0.20;;;;;;;12.91;100.00;101049.19;5067896;28;20541;-83
2021/10/19 10:37:40;;;;;;;0.22;0.22;;;;;;;12.82;100.00;101043.53;5063779;28;20424;-85
2021/10/19 10:40:11;;;;;;;0.20;0.20;;;;;;;12.90;100.00;101042.13;5070089;28;20468;-85
2021/10/19 10:42:41;;;;;;;0.20;0.20;;;;;;;12.90;100.00;101044.84;5066264;28;20067;-86
2021/10/19 10:45:17;;;;;;;0.20;0.20;;;;;;;12.96;100.00;101037.44;5067122;28;20055;-85
2021/10/19 10:47:58;;;;;;;0.20;0.20;;;;;;;13.04;100.00;101032.16;5058635;28;20060;-85
2021/10/19 10:50:33;;;;;;;0.20;0.20;;;;;;;13.07;100.00;101026.09;5065879;28;20453;-85
2021/10/19 10:53:08;;;;;;;0.20;0.20;;;;;;;13.20;100.00;101029.25;5060566;28;20060;-86
2021/10/19 10:55:44;;;;;;;0.20;0.20;;;;;;;13.24;100.00;101016.66;5050569;28;20040;-84
2021/10/19 10:58:23;;;;;;;0.20;0.20;;;;;;;13.23;100.00;101017.75;5061476;28;20052;-85
2021/10/19 11:00:52;;;;;;;0.20;0.20;;;;;;;13.24;100.00;101017.47;5058444;28;20532;-82
2021/10/19 11:03:27;;;;;;;0.30;0.30;;;;;;;13.26;100.00;101014.44;5052660;28;20067;-86
2021/10/19 11:06:01;;;;;;;0.20;0.20;;;;;;;13.15;100.00;100997.34;5057802;28;21324;-85
2021/10/19 11:08:32;;;;;;;0.20;0.20;;;;;;;13.27;100.00;101008.69;5058678;28;20052;-84
2021/10/19 11:11:08;;;;;;;0.20;0.20;;;;;;;13.32;100.00;101004.28;5074877;28;20074;-82
2021/10/19 11:13:50;;;;;;;0.20;0.20;;;;;;;13.27;100.00;101005.97;5053772;28;20087;-84
2021/10/19 11:16:32;;;;;;;0.20;0.20;;;;;;;13.26;100.00;101007.06;5060907;28;20056;-86
2021/10/19 11:19:05;;;;;;;0.30;0.30;;;;;;;13.25;100.00;100996.41;5062440;28;20058;-85
2021/10/19 11:21:38;;;;;;;0.20;0.20;;;;;;;13.35;100.00;100990.84;5058175;28;20051;-85
2021/10/19 11:24:13;;;;;;;0.20;0.20;;;;;;;13.34;100.00;100991.94;5066059;28;20052;-85
2021/10/19 11:26:46;;;;;;;0.20;0.20;;;;;;;13.38;100.00;100973.06;5058131;28;20365;-84
2021/10/19 11:29:21;;;;;;;0.30;0.30;;;;;;;13.27;100.00;100966.88;5061942;28;20056;-83
2021/10/19 11:31:54;;;;;;;0.20;0.20;;;;;;;13.30;100.00;100960.00;5072601;28;20048;-85
2021/10/19 11:34:28;;;;;;;0.20;0.20;;;;;;;13.30;100.00;100955.38;5066292;28;20048;-85
2021/10/19 11:37:02;;;;;;;0.30;0.30;;;;;;;13.24;100.00;100959.25;5070869;28;20716;-83
2021/10/19 11:39:30;;;;;;;0.20;0.20;;;;;;;13.28;100.00;100949.38;5077670;28;20056;-83
2021/10/19 11:42:04;;;;;;;0.25;0.25;;;;;;;13.26;100.00;100959.78;5072178;28;20048;-85
2021/10/19 11:44:38;;;;;;;0.20;0.20;;;;;;;13.29;100.00;100959.19;5074919;28;20048;-87
2021/10/19 11:47:11;;;;;;;0.30;0.30;;;;;;;13.28;100.00;100976.69;5075789;28;20059;-83
2021/10/19 11:49:47;;;;;;;0.20;0.20;;;;;;;13.32;100.00;100982.41;5074898;28;20400;-84